Weather at Soewondo Air Force Base

Public forecast

Using degrees Celsius for public forecast. Weather courtesy of forecast.io.

Closest aviation weather report (METAR) to Soewondo Air Force Base

Closest report is Kualanamu International Airport, 12.8 nm (23.7 km) ENE.

2023/02/08 00:00 (retrieved 33 minutes ago)

WIMM 080000Z 32003KT 3000 BR SCT018 25/24 Q1009 NOSIG

Closest aviation forecast (TAF) to Soewondo Air Force Base

Forecast is more than 6 hours old.

Closest forecast is Aden Adde International Airport, 3,201.4 nm (5,928.9 km) W.

2023/02/07 12:54 (retrieved 12 hours ago)

TAF TAF HCMM 071100Z 0712/0818 09018KT 9999 FEW025 BECMG 0800/0804 SCT020